Mekhanik Pogodin — UBFH6 — position and weather

sailwx.info

Track history (hours):
 
Tides and Currents Weather Stations Pressure Air Temp Water Temp Dewpoint Dewpoint Depression Visibility Wind Speed Wind Dir Waves Ship Positions

Mekhanik Pogodin

Last reported at 2017-Apr-28 04:45 UTC. Time now 2017-Apr-30 05:17 UTC.
Position N 45°45' E 036°56'.

Length 141 m; draft 3.2 m.

Type: Ship (hazmat cat B). MMSI: 273354720.

Date/timePositionNaut miles runAvg speedWind from/ knotsBaromVisibWave heightAir tempDewpointWater temp
2017-Apr-28 04:45N 45°45' E 036°56'4 9.6
2017-Apr-28 04:20N 45°41' E 036°54'3 9.6
2017-Apr-28 03:59N 45°38' E 036°53'5 9.6
2017-Apr-28 03:31N 45°34' E 036°50'5 9.5
2017-Apr-28 03:00N 45°29' E 036°47'5 9.5
2017-Apr-28 02:30N 45°25' E 036°43'5 9.1
2017-Apr-28 02:01N 45°21' E 036°40'4 7.3
2017-Apr-28 01:31N 45°20' E 036°36'4 8.4
2017-Apr-28 01:00N 45°18' E 036°30'4 8.0
2017-Apr-28 00:30N 45°14' E 036°29'1 1.1
2017-Apr-27 23:55N 45°14' E 036°30'0 0.0
2017-Apr-27 23:22N 45°14' E 036°30'0 0.0
2017-Apr-27 22:58N 45°14' E 036°30'0 0.0
2017-Apr-27 22:25N 45°14' E 036°30'0 0.0
2017-Apr-27 21:58N 45°14' E 036°30'0 0.1
2017-Apr-27 21:28N 45°14' E 036°30'0 0.0
2017-Apr-27 20:58N 45°14' E 036°30'0 0.1
2017-Apr-27 20:22N 45°14' E 036°30'0 0.0
2017-Apr-27 19:58N 45°14' E 036°30'0 0.1
2017-Apr-27 19:28N 45°14' E 036°30'0 0.0
2017-Apr-27 18:58N 45°14' E 036°30'0 0.0
2017-Apr-27 18:28N 45°14' E 036°30'0 0.0
2017-Apr-27 15:46N 45°14' E 036°30'0 0.1
2017-Apr-27 15:28N 45°14' E 036°30'0 0.0
2017-Apr-27 14:58N 45°14' E 036°30'0 0.0
2017-Apr-27 13:58N 45°14' E 036°30'1 1.9
2017-Apr-27 13:30N 45°13' E 036°29'5 9.2
2017-Apr-27 13:00N 45°08' E 036°30'5 9.6
2017-Apr-27 12:30N 45°04' E 036°30'5 9.7
2017-Apr-27 12:00N 44°59' E 036°31'  
2017-Apr-24 14:57N 40°51' E 028°49'  
2017-Apr-22 05:45N 35°58' E 030°23'410.3
2017-Apr-22 05:24N 35°58' E 030°27'  
Track history (hours):
 
Tides and Currents Weather Stations Pressure Air Temp Water Temp Dewpoint Dewpoint Depression Visibility Wind Speed Wind Dir Waves Ship Positions

Mekhanik Pogodin

Last reported at 2017-Apr-28 04:45 UTC. Time now 2017-Apr-30 05:17 UTC.
Position N 45°45' E 036°56'.

Length 141 m; draft 3.2 m.

Type: Ship (hazmat cat B). MMSI: 273354720.

Date/timePositionNaut miles runAvg speedWind from/ knotsBaromVisibWave heightAir tempDewpointWater temp
2017-Apr-28 04:45N 45°45' E 036°56'4 9.6
2017-Apr-28 04:20N 45°41' E 036°54'3 9.6
2017-Apr-28 03:59N 45°38' E 036°53'5 9.6
2017-Apr-28 03:31N 45°34' E 036°50'5 9.5
2017-Apr-28 03:00N 45°29' E 036°47'5 9.5
2017-Apr-28 02:30N 45°25' E 036°43'5 9.1
2017-Apr-28 02:01N 45°21' E 036°40'4 7.3
2017-Apr-28 01:31N 45°20' E 036°36'4 8.4
2017-Apr-28 01:00N 45°18' E 036°30'4 8.0
2017-Apr-28 00:30N 45°14' E 036°29'1 1.1
2017-Apr-27 23:55N 45°14' E 036°30'0 0.0
2017-Apr-27 23:22N 45°14' E 036°30'0 0.0
2017-Apr-27 22:58N 45°14' E 036°30'0 0.0
2017-Apr-27 22:25N 45°14' E 036°30'0 0.0
2017-Apr-27 21:58N 45°14' E 036°30'0 0.1
2017-Apr-27 21:28N 45°14' E 036°30'0 0.0
2017-Apr-27 20:58N 45°14' E 036°30'0 0.1
2017-Apr-27 20:22N 45°14' E 036°30'0 0.0
2017-Apr-27 19:58N 45°14' E 036°30'0 0.1
2017-Apr-27 19:28N 45°14' E 036°30'0 0.0
2017-Apr-27 18:58N 45°14' E 036°30'0 0.0
2017-Apr-27 18:28N 45°14' E 036°30'0 0.0
2017-Apr-27 15:46N 45°14' E 036°30'0 0.1
2017-Apr-27 15:28N 45°14' E 036°30'0 0.0
2017-Apr-27 14:58N 45°14' E 036°30'0 0.0
2017-Apr-27 13:58N 45°14' E 036°30'1 1.9
2017-Apr-27 13:30N 45°13' E 036°29'5 9.2
2017-Apr-27 13:00N 45°08' E 036°30'5 9.6
2017-Apr-27 12:30N 45°04' E 036°30'5 9.7
2017-Apr-27 12:00N 44°59' E 036°31'  
2017-Apr-24 14:57N 40°51' E 028°49'  
2017-Apr-22 05:45N 35°58' E 030°23'410.3
2017-Apr-22 05:24N 35°58' E 030°27'  

Dump ship's entire track history